createdAt,value
2023-01-25T00:00:50.765Z,-0.62
2023-01-25T00:03:17.401Z,-0.67
2023-01-25T00:05:44.014Z,-0.70
2023-01-25T00:08:10.510Z,-0.80
2023-01-25T00:10:37.089Z,-0.90
2023-01-25T00:13:03.621Z,-0.75
2023-01-25T00:15:30.457Z,-0.78
2023-01-25T00:17:57.064Z,-0.83
2023-01-25T00:20:23.587Z,-0.72
2023-01-25T00:22:50.064Z,-0.73
2023-01-25T00:25:16.581Z,-0.71
2023-01-25T00:27:43.083Z,-0.71
2023-01-25T00:30:09.807Z,-0.85
2023-01-25T00:33:08.756Z,-0.85
2023-01-25T00:35:35.234Z,-0.81
2023-01-25T00:38:02.599Z,-0.81
2023-01-25T00:40:29.083Z,-0.76
2023-01-25T00:42:55.910Z,-0.78
2023-01-25T00:45:22.440Z,-0.81
2023-01-25T00:47:48.940Z,-0.83
2023-01-25T00:50:15.608Z,-0.80
2023-01-25T00:52:42.116Z,-0.83
2023-01-25T00:55:09.177Z,-0.86
2023-01-25T00:57:35.828Z,-0.91
2023-01-25T01:00:02.332Z,-0.96
2023-01-25T01:02:30.297Z,-1.00
2023-01-25T01:04:56.943Z,-0.97
2023-01-25T01:07:23.524Z,-0.91
2023-01-25T01:09:51.902Z,-0.91
2023-01-25T01:12:18.380Z,-0.88
2023-01-25T01:14:44.895Z,-0.85
2023-01-25T01:17:11.391Z,-0.89
2023-01-25T01:19:39.488Z,-0.79
2023-01-25T01:22:07.087Z,-0.81
2023-01-25T01:24:33.608Z,-0.83
2023-01-25T01:27:00.122Z,-0.86
2023-01-25T01:29:26.681Z,-0.98
2023-01-25T01:31:54.004Z,-1.02
2023-01-25T01:34:25.642Z,-0.96
2023-01-25T01:36:53.178Z,-0.96
2023-01-25T01:39:20.175Z,-0.97
2023-01-25T01:41:46.694Z,-0.93
2023-01-25T01:44:17.634Z,-0.89
2023-01-25T01:46:49.276Z,-0.97
2023-01-25T01:49:18.632Z,-0.99
2023-01-25T01:52:05.401Z,-0.99
2023-01-25T01:54:49.969Z,-0.96
2023-01-25T01:57:16.936Z,-0.92
2023-01-25T01:59:43.783Z,-0.91
2023-01-25T02:02:10.376Z,-0.94
2023-01-25T02:04:37.178Z,-0.92
2023-01-25T02:07:15.212Z,-0.87
2023-01-25T02:09:42.402Z,-0.92
2023-01-25T02:12:08.960Z,-0.87
2023-01-25T02:14:35.516Z,-0.80
2023-01-25T02:17:03.190Z,-0.73
2023-01-25T02:19:38.845Z,-0.77
2023-01-25T02:22:07.765Z,-0.72
2023-01-25T02:24:34.253Z,-0.63
2023-01-25T02:27:00.761Z,-0.51
2023-01-25T02:29:27.741Z,-0.39
2023-01-25T02:32:02.184Z,-0.44
2023-01-25T02:34:28.687Z,-0.61
2023-01-25T02:36:55.219Z,-0.56
2023-01-25T02:39:24.057Z,-0.51
2023-01-25T02:41:50.545Z,-0.57
2023-01-25T02:44:18.459Z,-0.58
2023-01-25T02:46:50.855Z,-0.57
2023-01-25T02:49:17.450Z,-0.51
2023-01-25T02:51:44.963Z,-0.19
2023-01-25T02:54:12.003Z,0.20
2023-01-25T02:56:40.692Z,0.25
2023-01-25T02:59:07.837Z,0.19
2023-01-25T03:01:35.628Z,-0.03
2023-01-25T03:04:02.955Z,0.13
2023-01-25T03:06:30.620Z,0.17
2023-01-25T03:08:57.529Z,-0.07
2023-01-25T03:11:25.425Z,0.17
2023-01-25T03:13:52.059Z,0.26
2023-01-25T03:16:19.586Z,0.57
2023-01-25T03:18:46.229Z,0.42
2023-01-25T03:21:14.410Z,0.57
2023-01-25T03:23:41.277Z,0.61
2023-01-25T03:26:19.109Z,0.58
2023-01-25T03:29:11.670Z,0.51
2023-01-25T03:31:42.309Z,0.46
2023-01-25T03:34:08.994Z,0.47
2023-01-25T03:36:39.118Z,0.33
2023-01-25T03:39:05.689Z,0.41
2023-01-25T03:41:38.932Z,0.22
2023-01-25T03:44:11.554Z,0.23
2023-01-25T03:46:39.199Z,0.15
2023-01-25T03:49:05.895Z,0.12
2023-01-25T03:51:32.806Z,0.25
2023-01-25T03:53:59.297Z,0.29
2023-01-25T03:56:25.806Z,0.17
2023-01-25T03:59:07.211Z,-0.07
2023-01-25T04:01:36.120Z,0.05
2023-01-25T04:04:02.905Z,-0.11
2023-01-25T04:06:29.635Z,-0.07
2023-01-25T04:08:57.419Z,-0.14
2023-01-25T04:11:25.898Z,0.04
2023-01-25T04:13:53.513Z,0.48
2023-01-25T04:16:21.922Z,-0.15
2023-01-25T04:18:59.723Z,-0.43
2023-01-25T04:21:27.862Z,-0.36
2023-01-25T04:23:54.383Z,-0.23
2023-01-25T04:26:20.931Z,-0.12
2023-01-25T04:28:53.237Z,-0.03
2023-01-25T04:31:19.790Z,-0.12
2023-01-25T04:33:50.589Z,-0.24
2023-01-25T04:36:19.090Z,-0.03
2023-01-25T04:38:46.028Z,0.07
2023-01-25T04:41:12.553Z,0.05
2023-01-25T04:43:39.194Z,0.23
2023-01-25T04:46:09.517Z,-0.59
2023-01-25T04:48:36.100Z,-0.12
2023-01-25T04:51:05.456Z,0.06
2023-01-25T04:53:33.709Z,0.10
2023-01-25T04:56:01.562Z,0.03
2023-01-25T04:58:32.515Z,0.01
2023-01-25T05:01:02.611Z,0.14
2023-01-25T05:03:29.221Z,0.15
2023-01-25T05:05:56.090Z,-0.11
2023-01-25T05:08:26.031Z,-0.49
2023-01-25T05:10:55.472Z,-0.60
2023-01-25T05:13:40.451Z,-0.33
2023-01-25T05:16:18.599Z,-0.23
2023-01-25T05:18:48.751Z,-0.14
2023-01-25T05:21:38.936Z,0.03
2023-01-25T05:24:06.399Z,0.19
2023-01-25T05:26:52.985Z,0.06
2023-01-25T05:29:19.791Z,-0.40
2023-01-25T05:31:58.793Z,-0.75
2023-01-25T05:34:26.256Z,-0.36
2023-01-25T05:36:53.350Z,0.06
2023-01-25T05:39:20.030Z,0.20
2023-01-25T05:41:48.216Z,-0.19
2023-01-25T05:44:14.992Z,0.14
2023-01-25T05:46:45.828Z,0.57
2023-01-25T05:49:12.402Z,0.28
2023-01-25T05:51:39.750Z,0.12
2023-01-25T05:54:06.990Z,0.08
2023-01-25T05:56:34.088Z,-0.04
2023-01-25T05:59:00.772Z,-0.45
2023-01-25T06:01:27.362Z,-0.32
2023-01-25T06:03:57.310Z,-0.24
2023-01-25T06:06:25.458Z,-0.67
2023-01-25T06:08:52.619Z,-0.75
2023-01-25T06:11:20.341Z,-0.28
2023-01-25T06:13:48.458Z,-0.24
2023-01-25T06:16:15.353Z,-0.64
2023-01-25T06:18:41.857Z,-0.91
2023-01-25T06:21:22.795Z,-0.66
2023-01-25T06:23:49.384Z,-0.50
2023-01-25T06:26:15.900Z,-0.35
2023-01-25T06:28:42.492Z,0.32
2023-01-25T06:31:10.056Z,0.08
2023-01-25T06:33:36.670Z,-0.18
2023-01-25T06:36:04.377Z,-0.19
2023-01-25T06:38:30.859Z,-0.73
2023-01-25T06:41:01.313Z,-0.68
2023-01-25T06:43:27.841Z,-0.38
2023-01-25T06:45:57.528Z,-0.25
2023-01-25T06:48:24.345Z,-0.73
2023-01-25T06:50:57.254Z,-0.50
2023-01-25T06:53:24.476Z,-0.52
2023-01-25T06:55:56.435Z,-0.09
2023-01-25T06:58:22.993Z,0.14
2023-01-25T07:00:49.519Z,-0.26
2023-01-25T07:03:15.990Z,-0.64
2023-01-25T07:05:42.514Z,-0.68
2023-01-25T07:08:09.039Z,-0.41
2023-01-25T07:10:35.637Z,0.04
2023-01-25T07:13:02.196Z,0.47
2023-01-25T07:15:28.731Z,0.40
2023-01-25T07:17:55.786Z,0.00
2023-01-25T07:20:25.925Z,-0.17
2023-01-25T07:22:52.487Z,0.00
2023-01-25T07:25:18.976Z,0.18
2023-01-25T07:27:45.488Z,0.35
2023-01-25T07:30:12.134Z,0.49
2023-01-25T07:32:38.662Z,0.77
2023-01-25T07:35:05.422Z,0.57
2023-01-25T07:37:34.301Z,0.54
2023-01-25T07:40:00.848Z,0.59
2023-01-25T07:42:27.622Z,0.22
2023-01-25T07:45:11.245Z,0.21
2023-01-25T07:47:38.022Z,-0.11
2023-01-25T07:50:04.670Z,-0.02
2023-01-25T07:52:31.213Z,0.27
2023-01-25T07:54:57.704Z,0.33
2023-01-25T07:57:24.250Z,0.19
2023-01-25T07:59:51.792Z,0.30
2023-01-25T08:02:18.256Z,0.29
2023-01-25T08:04:45.566Z,0.58
2023-01-25T08:07:12.362Z,0.51
2023-01-25T08:09:39.464Z,0.26
2023-01-25T08:12:08.613Z,0.32
2023-01-25T08:14:35.389Z,0.31
2023-01-25T08:17:02.055Z,-0.03
2023-01-25T08:19:28.700Z,0.33
2023-01-25T08:21:55.293Z,0.45
2023-01-25T08:24:23.817Z,0.35
2023-01-25T08:26:51.158Z,0.51
2023-01-25T08:29:17.943Z,0.53
2023-01-25T08:31:45.251Z,0.62
2023-01-25T08:34:11.955Z,0.56
2023-01-25T08:36:38.592Z,0.57
2023-01-25T08:39:06.703Z,0.61
2023-01-25T08:41:33.728Z,0.46
2023-01-25T08:44:00.447Z,0.64
2023-01-25T08:46:30.390Z,0.67
2023-01-25T08:48:59.159Z,0.63
2023-01-25T08:51:26.013Z,0.50
2023-01-25T08:53:52.743Z,0.48
2023-01-25T08:56:19.486Z,0.39
2023-01-25T08:58:47.169Z,0.13
2023-01-25T09:01:15.005Z,0.33
2023-01-25T09:03:43.416Z,0.49
2023-01-25T09:06:12.459Z,0.46
2023-01-25T09:08:39.082Z,0.32
2023-01-25T09:11:07.402Z,0.45
2023-01-25T09:13:34.051Z,0.65
2023-01-25T09:16:03.635Z,0.35
2023-01-25T09:18:30.502Z,0.56
2023-01-25T09:20:57.195Z,0.69
2023-01-25T09:23:24.143Z,0.67
2023-01-25T09:25:58.146Z,0.81
2023-01-25T09:28:25.525Z,0.27
2023-01-25T09:31:20.620Z,-0.24
2023-01-25T09:34:12.324Z,-0.33
2023-01-25T09:36:38.964Z,0.35
2023-01-25T09:39:05.612Z,0.38
2023-01-25T09:41:37.689Z,0.65
2023-01-25T09:44:55.050Z,0.31
2023-01-25T09:47:39.739Z,0.73
2023-01-25T09:50:35.564Z,0.94
2023-01-25T09:53:25.865Z,0.59
2023-01-25T09:55:59.608Z,1.24
2023-01-25T09:58:30.852Z,1.17
2023-01-25T10:01:14.537Z,1.18
2023-01-25T10:04:12.702Z,1.05
2023-01-25T10:06:46.093Z,1.02
2023-01-25T10:09:34.264Z,0.95
2023-01-25T10:12:06.471Z,-0.04
2023-01-25T10:14:35.744Z,0.24
2023-01-25T10:17:06.253Z,0.88
2023-01-25T10:19:55.463Z,0.43
2023-01-25T10:22:28.957Z,1.00
2023-01-25T10:25:20.398Z,0.44
2023-01-25T10:27:50.135Z,0.17
2023-01-25T10:30:40.012Z,0.84
2023-01-25T10:33:15.028Z,0.67
2023-01-25T10:35:47.503Z,1.11
2023-01-25T10:38:21.814Z,1.28
2023-01-25T10:41:12.534Z,1.46
2023-01-25T10:43:39.159Z,1.50
2023-01-25T10:46:17.897Z,1.17
2023-01-25T10:48:44.541Z,1.28
2023-01-25T10:51:11.151Z,1.29
2023-01-25T10:53:39.564Z,1.36
2023-01-25T10:56:20.882Z,1.37
2023-01-25T10:58:49.286Z,1.49
2023-01-25T11:01:29.742Z,1.41
2023-01-25T11:03:56.581Z,1.41
2023-01-25T11:06:31.721Z,1.53
2023-01-25T11:08:58.415Z,1.64
2023-01-25T11:11:34.898Z,1.56
2023-01-25T11:14:01.571Z,1.52
2023-01-25T11:16:36.022Z,1.80
2023-01-25T11:19:03.011Z,1.60
2023-01-25T11:21:31.526Z,0.66
2023-01-25T11:24:10.859Z,1.12
2023-01-25T11:26:38.904Z,1.34
2023-01-25T11:29:14.597Z,1.22
2023-01-25T11:31:46.365Z,1.73
2023-01-25T11:34:15.246Z,1.60
2023-01-25T11:36:51.624Z,1.45
2023-01-25T11:39:34.394Z,1.54
2023-01-25T11:42:13.141Z,1.65
2023-01-25T11:45:11.044Z,1.56
2023-01-25T11:48:03.783Z,1.43
2023-01-25T11:50:39.129Z,1.58
2023-01-25T11:53:24.924Z,1.60
2023-01-25T11:56:02.559Z,1.52
2023-01-25T11:58:50.510Z,0.62
2023-01-25T12:01:22.302Z,1.06
2023-01-25T12:04:00.375Z,1.32
2023-01-25T12:06:33.225Z,1.51
2023-01-25T12:09:21.765Z,1.36
2023-01-25T12:12:08.694Z,1.42
2023-01-25T12:14:43.005Z,1.37
2023-01-25T12:17:32.406Z,1.41
2023-01-25T12:20:11.550Z,1.23
2023-01-25T12:23:01.234Z,1.23
2023-01-25T12:25:41.358Z,1.27
2023-01-25T12:28:19.625Z,1.56
2023-01-25T12:30:59.861Z,1.56
2023-01-25T12:33:43.621Z,1.30
2023-01-25T12:36:33.916Z,1.52
2023-01-25T12:39:24.372Z,1.87
2023-01-25T12:41:57.304Z,1.74
2023-01-25T12:44:25.365Z,1.63
2023-01-25T12:47:24.419Z,1.54
2023-01-25T12:49:55.572Z,1.56
2023-01-25T12:52:23.453Z,1.02
2023-01-25T12:54:50.151Z,1.25
2023-01-25T12:57:40.016Z,1.31
2023-01-25T13:00:14.659Z,1.30
2023-01-25T13:03:12.786Z,1.43
2023-01-25T13:05:52.114Z,1.52
2023-01-25T13:08:48.702Z,1.57
2023-01-25T13:11:27.668Z,1.81
2023-01-25T13:14:26.996Z,1.54
2023-01-25T13:17:09.451Z,1.60
2023-01-25T13:19:36.844Z,1.79
2023-01-25T13:22:03.755Z,1.34
2023-01-25T13:24:31.769Z,1.34
2023-01-25T13:27:00.124Z,1.23
2023-01-25T13:29:35.879Z,1.22
2023-01-25T13:32:03.394Z,1.40
2023-01-25T13:34:35.891Z,1.71
2023-01-25T13:37:03.431Z,1.39
2023-01-25T13:39:32.879Z,1.48
2023-01-25T13:41:59.927Z,1.72
2023-01-25T13:44:28.604Z,1.70
2023-01-25T13:46:58.616Z,1.78
2023-01-25T13:49:28.402Z,1.83
2023-01-25T13:51:55.008Z,1.63
2023-01-25T13:54:21.631Z,1.50
2023-01-25T13:56:48.287Z,1.44
2023-01-25T13:59:25.696Z,1.67
2023-01-25T14:01:52.768Z,0.98
2023-01-25T14:04:19.401Z,0.96
2023-01-25T14:06:46.292Z,0.84
2023-01-25T14:09:17.290Z,1.03
2023-01-25T14:11:46.635Z,1.38
2023-01-25T14:14:31.257Z,1.59
2023-01-25T14:17:17.297Z,1.08
2023-01-25T14:19:45.279Z,1.31
2023-01-25T14:22:12.908Z,0.92
2023-01-25T14:24:39.930Z,0.53
2023-01-25T14:27:06.858Z,0.60
2023-01-25T14:29:35.291Z,0.48
2023-01-25T14:32:02.321Z,0.98
2023-01-25T14:34:29.016Z,1.25
2023-01-25T14:37:15.007Z,0.72
2023-01-25T14:39:42.028Z,0.68
2023-01-25T14:42:08.667Z,1.04
2023-01-25T14:44:35.399Z,1.31
2023-01-25T14:47:22.777Z,1.07
2023-01-25T14:49:49.461Z,1.71
2023-01-25T14:52:27.041Z,1.69
2023-01-25T14:54:55.511Z,1.34
2023-01-25T14:57:33.061Z,1.82
2023-01-25T14:59:59.690Z,1.62
2023-01-25T15:02:29.125Z,1.23
2023-01-25T15:05:15.163Z,0.94
2023-01-25T15:07:49.056Z,1.02
2023-01-25T15:10:31.257Z,1.56
2023-01-25T15:13:04.125Z,1.23
2023-01-25T15:15:35.209Z,0.87
2023-01-25T15:18:02.144Z,0.57
2023-01-25T15:20:39.427Z,0.66
2023-01-25T15:23:21.600Z,0.46
2023-01-25T15:25:56.073Z,0.40
2023-01-25T15:28:23.583Z,1.00
2023-01-25T15:30:50.652Z,1.04
2023-01-25T15:33:22.201Z,1.36
2023-01-25T15:35:49.208Z,2.38
2023-01-25T15:38:15.929Z,1.70
2023-01-25T15:40:43.137Z,0.65
2023-01-25T15:43:11.586Z,0.64
2023-01-25T15:45:38.699Z,0.47
2023-01-25T15:48:05.347Z,0.69
2023-01-25T15:50:32.054Z,1.11
2023-01-25T15:52:58.671Z,1.56
2023-01-25T15:55:25.290Z,0.56
2023-01-25T15:57:52.044Z,1.22
2023-01-25T16:00:20.622Z,1.49
2023-01-25T16:02:47.381Z,1.41
2023-01-25T16:05:14.066Z,1.82
2023-01-25T16:07:40.984Z,1.80
2023-01-25T16:10:21.707Z,0.96
2023-01-25T16:12:48.749Z,1.19
2023-01-25T16:15:15.440Z,0.87
2023-01-25T16:17:42.067Z,1.12
2023-01-25T16:20:15.885Z,1.68
2023-01-25T16:22:42.691Z,1.96
2023-01-25T16:25:09.669Z,1.52
2023-01-25T16:27:36.320Z,1.87
2023-01-25T16:30:04.419Z,1.66
2023-01-25T16:32:31.001Z,1.76
2023-01-25T16:34:57.650Z,1.74
2023-01-25T16:37:24.324Z,1.06
2023-01-25T16:39:52.647Z,0.65
2023-01-25T16:42:21.165Z,1.34
2023-01-25T16:44:49.644Z,1.13
2023-01-25T16:47:16.335Z,0.46
2023-01-25T16:49:43.022Z,0.43
2023-01-25T16:52:10.531Z,0.94
2023-01-25T16:54:37.221Z,1.55
2023-01-25T16:57:15.006Z,1.82
2023-01-25T16:59:46.175Z,1.75
2023-01-25T17:02:12.926Z,1.71
2023-01-25T17:04:39.639Z,1.68
2023-01-25T17:07:08.449Z,1.20
2023-01-25T17:09:35.129Z,1.53
2023-01-25T17:12:01.740Z,1.81
2023-01-25T17:14:28.356Z,1.70
2023-01-25T17:16:55.009Z,1.51
2023-01-25T17:19:21.831Z,1.21
2023-01-25T17:21:48.513Z,1.19
2023-01-25T17:24:16.437Z,1.51
2023-01-25T17:26:43.149Z,1.68
2023-01-25T17:29:10.405Z,1.82
2023-01-25T17:31:38.015Z,1.67
2023-01-25T17:34:05.883Z,1.06
2023-01-25T17:36:32.643Z,1.04
2023-01-25T17:39:06.114Z,1.31
2023-01-25T17:41:32.877Z,1.48
2023-01-25T17:44:00.534Z,1.63
2023-01-25T17:46:33.144Z,1.88
2023-01-25T17:49:01.058Z,1.01
2023-01-25T17:51:27.841Z,0.61
2023-01-25T17:53:54.533Z,0.65
2023-01-25T17:56:21.314Z,1.22
2023-01-25T17:58:47.959Z,1.78
2023-01-25T18:01:15.736Z,2.08
2023-01-25T18:03:42.812Z,1.80
2023-01-25T18:06:10.356Z,0.65
2023-01-25T18:08:40.832Z,0.50
2023-01-25T18:11:11.434Z,0.30
2023-01-25T18:13:42.041Z,0.33
2023-01-25T18:16:09.714Z,0.69
2023-01-25T18:18:37.066Z,1.33
2023-01-25T18:21:11.056Z,1.38
2023-01-25T18:23:38.275Z,1.97
2023-01-25T18:26:06.494Z,1.78
2023-01-25T18:28:33.230Z,1.26
2023-01-25T18:31:01.404Z,1.83
2023-01-25T18:33:28.165Z,2.16
2023-01-25T18:35:55.188Z,1.37
2023-01-25T18:38:21.790Z,0.65
2023-01-25T18:40:48.392Z,0.45
2023-01-25T18:43:16.652Z,0.55
2023-01-25T18:45:43.858Z,1.11
2023-01-25T18:48:13.527Z,1.33
2023-01-25T18:50:41.258Z,1.36
2023-01-25T18:53:10.845Z,1.41
2023-01-25T18:55:37.782Z,1.41
2023-01-25T18:58:04.873Z,1.63
2023-01-25T19:00:32.319Z,1.39
2023-01-25T19:02:59.310Z,1.76
2023-01-25T19:05:25.996Z,1.75
2023-01-25T19:07:52.864Z,1.57
2023-01-25T19:10:19.584Z,0.51
2023-01-25T19:12:46.206Z,0.26
2023-01-25T19:15:13.783Z,0.24
2023-01-25T19:17:40.545Z,0.26
2023-01-25T19:20:07.525Z,0.22
2023-01-25T19:22:34.122Z,0.52
2023-01-25T19:25:01.042Z,0.38
2023-01-25T19:27:29.425Z,0.58
2023-01-25T19:29:56.185Z,1.00
2023-01-25T19:32:22.806Z,1.12
2023-01-25T19:34:49.433Z,1.26
2023-01-25T19:37:16.037Z,1.39
2023-01-25T19:39:43.121Z,1.68
2023-01-25T19:42:09.988Z,1.06
2023-01-25T19:44:36.670Z,0.49
2023-01-25T19:47:03.487Z,0.85
2023-01-25T19:49:30.244Z,1.08
2023-01-25T19:51:56.876Z,0.78
2023-01-25T19:54:24.377Z,1.09
2023-01-25T19:56:51.256Z,1.33
2023-01-25T19:59:19.621Z,1.34
2023-01-25T20:01:46.635Z,1.47
2023-01-25T20:04:19.600Z,1.08
2023-01-25T20:06:46.299Z,1.33
2023-01-25T20:09:13.854Z,1.25
2023-01-25T20:11:40.910Z,1.36
2023-01-25T20:14:07.746Z,1.22
2023-01-25T20:16:34.930Z,1.18
2023-01-25T20:19:02.125Z,1.29
2023-01-25T20:21:29.079Z,1.20
2023-01-25T20:23:58.368Z,1.11
2023-01-25T20:26:36.637Z,1.14
2023-01-25T20:29:03.378Z,1.63
2023-01-25T20:31:33.689Z,0.99
2023-01-25T20:34:03.313Z,1.00
2023-01-25T20:36:30.787Z,0.28
2023-01-25T20:38:57.550Z,0.75
2023-01-25T20:41:24.426Z,0.94
2023-01-25T20:43:52.540Z,0.79
2023-01-25T20:46:19.862Z,1.15
2023-01-25T20:48:49.607Z,1.23
2023-01-25T20:51:21.457Z,1.31
2023-01-25T20:53:49.225Z,1.02
2023-01-25T20:56:16.125Z,1.15
2023-01-25T20:58:45.381Z,1.06
2023-01-25T21:01:16.464Z,0.87
2023-01-25T21:03:43.133Z,0.78
2023-01-25T21:06:09.934Z,0.67
2023-01-25T21:08:36.836Z,0.73
2023-01-25T21:11:03.543Z,0.16
2023-01-25T21:13:30.239Z,0.21
2023-01-25T21:16:17.968Z,0.72
2023-01-25T21:18:46.750Z,1.04
2023-01-25T21:21:14.908Z,1.19
2023-01-25T21:23:42.569Z,1.28
2023-01-25T21:26:12.977Z,0.97
2023-01-25T21:28:39.590Z,1.25
2023-01-25T21:31:17.105Z,1.44
2023-01-25T21:33:43.916Z,1.46
2023-01-25T21:36:11.863Z,1.37
2023-01-25T21:38:38.805Z,0.94
2023-01-25T21:41:06.482Z,1.12
2023-01-25T21:43:53.345Z,1.23
2023-01-25T21:46:26.916Z,1.02
2023-01-25T21:49:16.048Z,1.02
2023-01-25T21:51:49.412Z,1.15
2023-01-25T21:54:23.345Z,1.50
2023-01-25T21:56:50.931Z,1.87
2023-01-25T21:59:17.557Z,1.58
2023-01-25T22:01:44.378Z,1.59
2023-01-25T22:04:11.377Z,1.72
2023-01-25T22:06:38.105Z,1.24
2023-01-25T22:09:04.957Z,1.60
2023-01-25T22:11:31.777Z,1.43
2023-01-25T22:13:58.420Z,1.20
2023-01-25T22:16:26.198Z,1.21
2023-01-25T22:18:52.795Z,0.99
2023-01-25T22:21:23.671Z,0.88
2023-01-25T22:23:50.546Z,0.97
2023-01-25T22:26:18.522Z,1.03
2023-01-25T22:28:49.160Z,1.08
2023-01-25T22:31:20.604Z,1.18
2023-01-25T22:33:47.263Z,0.79
2023-01-25T22:36:14.570Z,0.25
2023-01-25T22:38:41.160Z,0.54
2023-01-25T22:41:14.939Z,1.01
2023-01-25T22:43:41.613Z,1.07
2023-01-25T22:46:11.080Z,1.38
2023-01-25T22:48:37.738Z,1.11
2023-01-25T22:51:05.963Z,0.74
2023-01-25T22:53:32.620Z,0.81
2023-01-25T22:56:01.209Z,1.05
2023-01-25T22:58:28.116Z,1.05
2023-01-25T23:00:54.856Z,1.28
2023-01-25T23:03:21.467Z,1.18
2023-01-25T23:05:48.091Z,1.31
2023-01-25T23:08:14.724Z,0.91
2023-01-25T23:10:41.355Z,1.15
2023-01-25T23:13:07.985Z,0.71
2023-01-25T23:15:34.678Z,0.56
2023-01-25T23:18:19.887Z,0.00
2023-01-25T23:20:46.668Z,-0.17
2023-01-25T23:23:13.277Z,0.01
2023-01-25T23:25:39.899Z,0.12
2023-01-25T23:28:06.490Z,-0.04
2023-01-25T23:30:33.164Z,-0.21
2023-01-25T23:32:59.969Z,-0.46
2023-01-25T23:35:27.463Z,-0.29
2023-01-25T23:37:54.064Z,-0.08
2023-01-25T23:40:20.672Z,-0.03
2023-01-25T23:42:47.290Z,-0.37
2023-01-25T23:45:14.609Z,-0.55
2023-01-25T23:47:41.269Z,-0.43
2023-01-25T23:50:08.758Z,-0.47
2023-01-25T23:52:35.675Z,-0.42
2023-01-25T23:55:02.366Z,-0.09
2023-01-25T23:57:29.060Z,-0.21
2023-01-25T23:59:55.695Z,0.09
